Time;durP1;ratioP1;P1;durP2;ratioP2;P2;SDS_P1;SDS_P2;PMS_P1;PMS_P2;Temp;Humidity;BMP_temperature;BMP_pressure;BME280_temperature;BME280_humidity;BME280_pressure;Samples;Min_cycle;Max_cycle;Signal;HPM_P1;HPM_P2
2022/09/03 00:00:42;;;;;;;9.93;5.55;;;;;;;;;;4979075;28;20496;-68
2022/09/03 00:03:26;;;;;;;7.38;5.32;;;;;;;;;;4984357;28;20030;-66
2022/09/03 00:06:16;;;;;;;8.10;4.65;;;;;;;;;;4994582;28;20041;-65
2022/09/03 00:09:05;;;;;;;7.80;5.10;;;;;;;;;;4994801;28;20068;-65
2022/09/03 00:11:51;;;;;;;8.27;4.60;;;;;;;;;;4993931;28;20036;-65
2022/09/03 00:14:40;;;;;;;7.47;4.30;;;;;;;;;;4973223;28;20050;-65
2022/09/03 00:17:15;;;;;;;9.98;4.20;;;;;;;;;;4986821;28;20120;-66
2022/09/03 00:19:57;;;;;;;6.20;4.05;;;;;;;;;;4995072;28;20027;-65
2022/09/03 00:22:31;;;;;;;5.60;4.00;;;;;;;;;;4990449;28;20082;-66
2022/09/03 00:25:01;;;;;;;6.35;4.50;;;;;;;;;;4995075;28;20039;-65
2022/09/03 00:27:28;;;;;;;7.35;3.80;;;;;;;;;;4995103;28;20125;-65
2022/09/03 00:29:58;;;;;;;8.15;4.38;;;;;;;;;;4994982;28;20034;-65
2022/09/03 00:32:47;;;;;;;6.43;3.90;;;;;;;;;;4996218;28;20034;-65
2022/09/03 00:35:19;;;;;;;11.00;4.50;;;;;;;;;;4994678;28;20069;-65
2022/09/03 00:37:45;;;;;;;9.35;4.78;;;;;;;;;;4994625;28;20038;-65
2022/09/03 00:40:30;;;;;;;8.25;4.35;;;;;;;;;;4994199;28;20092;-65
2022/09/03 00:43:30;;;;;;;10.75;4.72;;;;;;;;;;4994222;28;20030;-65
2022/09/03 00:46:18;;;;;;;9.75;5.30;;;;;;;;;;4994848;28;20871;-65
2022/09/03 00:49:00;;;;;;;12.13;5.30;;;;;;;;;;4994607;28;20125;-65
2022/09/03 00:51:34;;;;;;;10.35;6.20;;;;;;;;;;4994868;28;20046;-66
2022/09/03 00:54:31;;;;;;;7.32;5.57;;;;;;;;;;4993595;28;20031;-67
2022/09/03 00:57:24;;;;;;;10.73;5.63;;;;;;;;;;4993994;28;20034;-66
2022/09/03 00:59:55;;;;;;;9.50;7.20;;;;;;;;;;4994392;28;20036;-66
2022/09/03 01:02:45;;;;;;;11.43;7.72;;;;;;;;;;4987740;28;20125;-67
2022/09/03 01:05:24;;;;;;;10.55;7.32;;;;;;;;;;4987602;28;20038;-66
2022/09/03 01:08:19;;;;;;;7.78;6.57;;;;;;;;;;4993547;28;20037;-66
2022/09/03 01:11:03;;;;;;;8.45;6.00;;;;;;;;;;4993213;28;20046;-66
2022/09/03 01:13:35;;;;;;;8.90;5.90;;;;;;;;;;4994010;28;20562;-66
2022/09/03 01:16:14;;;;;;;9.82;6.22;;;;;;;;;;4993596;28;20508;-65
2022/09/03 01:19:03;;;;;;;10.55;6.00;;;;;;;;;;4994143;28;20451;-66
2022/09/03 01:21:52;;;;;;;10.95;6.00;;;;;;;;;;4975145;28;20045;-66
2022/09/03 01:24:43;;;;;;;9.93;5.82;;;;;;;;;;4988595;28;20134;-66
2022/09/03 01:27:46;;;;;;;10.43;6.60;;;;;;;;;;4987487;28;20030;-66
2022/09/03 01:30:21;;;;;;;14.60;7.03;;;;;;;;;;4993846;28;20022;-66
2022/09/03 01:33:05;;;;;;;11.98;6.88;;;;;;;;;;4978074;28;20137;-65
2022/09/03 01:35:34;;;;;;;9.90;6.38;;;;;;;;;;4993716;28;20527;-66
2022/09/03 01:38:06;;;;;;;10.43;6.28;;;;;;;;;;4992919;28;20097;-66
2022/09/03 01:40:53;;;;;;;15.98;6.68;;;;;;;;;;4978280;28;20034;-66
2022/09/03 01:43:40;;;;;;;12.30;7.53;;;;;;;;;;4988371;28;20030;-66
2022/09/03 01:46:18;;;;;;;15.38;7.65;;;;;;;;;;4986634;28;20473;-66
2022/09/03 01:49:00;;;;;;;10.98;7.10;;;;;;;;;;4993612;28;20037;-67
2022/09/03 01:51:30;;;;;;;10.32;7.70;;;;;;;;;;4993801;28;20101;-66
2022/09/03 01:54:29;;;;;;;12.18;8.00;;;;;;;;;;4993384;28;20039;-66
2022/09/03 01:56:58;;;;;;;11.30;9.23;;;;;;;;;;4993540;28;20440;-66
2022/09/03 01:59:32;;;;;;;14.23;9.18;;;;;;;;;;4993038;28;20500;-66
2022/09/03 02:02:01;;;;;;;14.18;8.80;;;;;;;;;;4993315;28;20046;-67
2022/09/03 02:04:27;;;;;;;13.23;9.07;;;;;;;;;;4992903;28;20031;-66
2022/09/03 02:06:56;;;;;;;15.45;9.20;;;;;;;;;;4992911;28;20040;-66
2022/09/03 02:09:23;;;;;;;15.38;9.05;;;;;;;;;;4992944;28;20041;-66
2022/09/03 02:12:13;;;;;;;13.75;9.13;;;;;;;;;;4991003;28;20037;-67
2022/09/03 02:14:39;;;;;;;14.60;10.15;;;;;;;;;;4991515;28;20109;-66
2022/09/03 02:17:06;;;;;;;13.73;8.52;;;;;;;;;;4993243;28;20449;-67
2022/09/03 02:19:34;;;;;;;16.75;9.73;;;;;;;;;;4992848;28;20367;-66
2022/09/03 02:21:59;;;;;;;14.82;9.10;;;;;;;;;;4992605;28;20026;-72
2022/09/03 02:24:27;;;;;;;13.95;8.25;;;;;;;;;;4992713;28;20037;-70
2022/09/03 02:26:53;;;;;;;16.38;10.15;;;;;;;;;;4991555;28;20459;-67
2022/09/03 02:29:20;;;;;;;11.85;9.43;;;;;;;;;;4992647;28;20043;-66
2022/09/03 02:31:45;;;;;;;17.50;8.90;;;;;;;;;;4992827;28;20113;-67
2022/09/03 02:34:11;;;;;;;12.57;8.40;;;;;;;;;;4993927;28;20460;-67
2022/09/03 02:36:40;;;;;;;13.05;8.38;;;;;;;;;;4992546;28;20084;-66
2022/09/03 02:39:06;;;;;;;14.52;8.27;;;;;;;;;;4991529;28;20038;-68
2022/09/03 02:41:33;;;;;;;12.73;7.70;;;;;;;;;;4992660;28;20101;-68
2022/09/03 02:44:24;;;;;;;17.40;9.43;;;;;;;;;;4992752;28;20072;-66
2022/09/03 02:47:08;;;;;;;12.00;8.20;;;;;;;;;;4977331;28;20050;-67
2022/09/03 02:49:34;;;;;;;10.50;6.95;;;;;;;;;;4988657;28;20022;-66
2022/09/03 02:52:10;;;;;;;11.40;6.85;;;;;;;;;;4992373;28;20104;-67
2022/09/03 02:54:40;;;;;;;11.50;6.78;;;;;;;;;;4992623;28;20604;-68
2022/09/03 02:57:11;;;;;;;10.48;7.40;;;;;;;;;;4991954;28;20469;-71
2022/09/03 02:59:38;;;;;;;12.63;7.82;;;;;;;;;;4992034;28;20026;-68
2022/09/03 03:02:04;;;;;;;10.55;7.70;;;;;;;;;;4991681;28;20022;-66
2022/09/03 03:04:31;;;;;;;9.75;6.63;;;;;;;;;;4991818;28;20100;-67
2022/09/03 03:06:57;;;;;;;10.23;6.65;;;;;;;;;;4992251;28;20088;-66
2022/09/03 03:09:23;;;;;;;10.95;6.50;;;;;;;;;;4991984;28;20088;-66
2022/09/03 03:11:50;;;;;;;9.27;6.90;;;;;;;;;;4991852;28;20022;-65
2022/09/03 03:14:17;;;;;;;8.88;6.72;;;;;;;;;;4993555;28;20608;-66
2022/09/03 03:16:43;;;;;;;13.55;7.40;;;;;;;;;;5010623;28;20033;-66
2022/09/03 03:19:10;;;;;;;8.38;6.47;;;;;;;;;;5011549;28;20052;-66
2022/09/03 03:21:36;;;;;;;11.73;7.30;;;;;;;;;;5012485;28;20026;-66
2022/09/03 03:24:02;;;;;;;10.10;6.47;;;;;;;;;;4994580;28;20116;-66
2022/09/03 03:26:28;;;;;;;11.52;6.75;;;;;;;;;;5012013;28;20073;-66
2022/09/03 03:28:59;;;;;;;11.65;7.10;;;;;;;;;;5012093;28;20551;-68
2022/09/03 03:31:26;;;;;;;10.00;6.97;;;;;;;;;;4994881;28;20038;-66
2022/09/03 03:33:57;;;;;;;10.43;6.55;;;;;;;;;;5012042;28;20022;-66
2022/09/03 03:36:25;;;;;;;9.43;6.38;;;;;;;;;;5011957;28;20042;-66
2022/09/03 03:38:54;;;;;;;11.80;7.03;;;;;;;;;;5012629;28;20025;-66
2022/09/03 03:41:22;;;;;;;9.80;6.30;;;;;;;;;;5000906;28;20436;-66
2022/09/03 03:43:56;;;;;;;13.95;8.35;;;;;;;;;;4995123;28;20093;-66
2022/09/03 03:46:23;;;;;;;10.73;7.10;;;;;;;;;;4995809;28;20529;-65
2022/09/03 03:48:50;;;;;;;12.52;7.72;;;;;;;;;;4994089;28;20362;-67
2022/09/03 03:51:17;;;;;;;12.27;6.95;;;;;;;;;;4996128;28;20427;-67
2022/09/03 03:53:43;;;;;;;11.40;7.53;;;;;;;;;;4996956;28;20106;-66
2022/09/03 03:56:12;;;;;;;12.00;8.10;;;;;;;;;;4995374;28;20121;-65
2022/09/03 03:58:42;;;;;;;17.23;8.50;;;;;;;;;;4996595;28;20022;-66
2022/09/03 04:01:14;;;;;;;14.00;9.57;;;;;;;;;;4997016;28;20509;-66
2022/09/03 04:03:41;;;;;;;14.45;7.93;;;;;;;;;;4995277;28;20400;-66
2022/09/03 04:06:08;;;;;;;10.93;7.97;;;;;;;;;;4993713;28;20026;-66
2022/09/03 04:08:39;;;;;;;11.02;7.82;;;;;;;;;;4996156;28;20114;-65
2022/09/03 04:11:08;;;;;;;16.60;8.30;;;;;;;;;;4971140;28;20031;-66
2022/09/03 04:13:37;;;;;;;13.32;7.32;;;;;;;;;;4996170;28;20038;-66
2022/09/03 04:16:11;;;;;;;14.23;8.20;;;;;;;;;;4996765;28;20354;-66
2022/09/03 04:18:38;;;;;;;12.93;7.72;;;;;;;;;;4996522;28;20042;-66
2022/09/03 04:21:06;;;;;;;16.10;9.48;;;;;;;;;;4996273;28;20031;-66
2022/09/03 04:23:34;;;;;;;16.13;9.43;;;;;;;;;;4978731;28;20593;-66
2022/09/03 04:26:00;;;;;;;12.45;9.07;;;;;;;;;;4995960;28;20032;-66
2022/09/03 04:28:26;;;;;;;15.73;10.07;;;;;;;;;;4994958;28;20057;-66
2022/09/03 04:30:52;;;;;;;11.85;7.97;;;;;;;;;;4996606;28;20080;-66
2022/09/03 04:33:19;;;;;;;9.88;6.85;;;;;;;;;;4996392;28;20035;-67
2022/09/03 04:35:45;;;;;;;10.10;7.28;;;;;;;;;;4995916;28;20049;-67
2022/09/03 04:38:11;;;;;;;13.20;7.45;;;;;;;;;;4995642;28;20038;-66
2022/09/03 04:40:38;;;;;;;8.88;6.68;;;;;;;;;;4997056;28;20112;-67
2022/09/03 04:43:03;;;;;;;7.90;5.55;;;;;;;;;;4995190;28;20058;-66
2022/09/03 04:45:29;;;;;;;8.88;7.07;;;;;;;;;;4995586;28;20066;-67
2022/09/03 04:47:57;;;;;;;8.20;5.20;;;;;;;;;;4994956;28;20199;-65
2022/09/03 04:50:24;;;;;;;7.63;5.03;;;;;;;;;;4995447;28;20163;-66
2022/09/03 04:53:03;;;;;;;7.03;5.07;;;;;;;;;;4995364;28;20058;-66
2022/09/03 04:55:34;;;;;;;5.72;4.43;;;;;;;;;;4996086;28;20432;-66
2022/09/03 04:57:59;;;;;;;7.70;4.68;;;;;;;;;;4994912;28;20034;-66
2022/09/03 05:00:25;;;;;;;8.07;6.00;;;;;;;;;;4995242;28;20429;-66
2022/09/03 05:02:51;;;;;;;8.05;6.10;;;;;;;;;;4995651;28;20096;-67
2022/09/03 05:05:17;;;;;;;6.50;5.78;;;;;;;;;;4995699;28;20026;-66
2022/09/03 05:07:43;;;;;;;6.95;5.78;;;;;;;;;;4995585;28;20042;-66
2022/09/03 05:10:12;;;;;;;12.15;7.00;;;;;;;;;;4994826;28;20046;-67
2022/09/03 05:12:38;;;;;;;8.07;5.90;;;;;;;;;;4995331;28;20081;-66
2022/09/03 05:15:05;;;;;;;8.10;6.57;;;;;;;;;;4995481;28;20038;-67
2022/09/03 05:17:31;;;;;;;9.77;6.47;;;;;;;;;;4995611;28;20033;-66
2022/09/03 05:19:57;;;;;;;8.60;6.90;;;;;;;;;;4995167;28;20409;-66
2022/09/03 05:22:23;;;;;;;11.48;6.85;;;;;;;;;;4995229;28;20037;-66
2022/09/03 05:24:49;;;;;;;7.18;5.72;;;;;;;;;;4995072;28;20104;-66
2022/09/03 05:27:15;;;;;;;8.75;5.57;;;;;;;;;;4994960;28;20035;-66
2022/09/03 05:29:45;;;;;;;9.93;6.22;;;;;;;;;;4994958;28;20076;-66
2022/09/03 05:32:16;;;;;;;7.45;5.50;;;;;;;;;;4995028;28;20151;-66
2022/09/03 05:34:42;;;;;;;9.07;5.35;;;;;;;;;;4995166;28;20062;-66
2022/09/03 05:37:09;;;;;;;7.30;5.43;;;;;;;;;;4995049;28;20120;-66
2022/09/03 05:39:35;;;;;;;9.68;5.38;;;;;;;;;;4995088;28;20030;-65
2022/09/03 05:42:00;;;;;;;9.18;5.97;;;;;;;;;;4994864;28;20018;-66
2022/09/03 05:44:26;;;;;;;7.90;5.40;;;;;;;;;;4994714;28;20447;-66
2022/09/03 05:46:52;;;;;;;7.78;5.90;;;;;;;;;;4995000;28;20034;-67
2022/09/03 05:49:18;;;;;;;6.57;4.90;;;;;;;;;;4994564;28;20039;-66
2022/09/03 05:51:45;;;;;;;9.50;5.75;;;;;;;;;;4994394;28;20385;-67
2022/09/03 05:54:10;;;;;;;8.65;5.35;;;;;;;;;;4994721;28;20426;-66
2022/09/03 05:56:38;;;;;;;7.72;5.95;;;;;;;;;;4994719;28;20117;-65
2022/09/03 05:59:08;;;;;;;16.17;6.70;;;;;;;;;;4994425;28;20061;-65
2022/09/03 06:01:39;;;;;;;9.10;6.15;;;;;;;;;;4993614;28;20444;-68
2022/09/03 06:04:10;;;;;;;9.70;5.93;;;;;;;;;;4994521;28;20108;-67
2022/09/03 06:06:38;;;;;;;8.60;5.75;;;;;;;;;;4994146;28;20054;-67
2022/09/03 06:09:07;;;;;;;7.82;6.30;;;;;;;;;;4994197;28;20381;-66
2022/09/03 06:11:34;;;;;;;9.30;6.10;;;;;;;;;;4994117;28;20038;-71
2022/09/03 06:14:03;;;;;;;11.73;7.30;;;;;;;;;;4993616;28;20044;-71
2022/09/03 06:16:30;;;;;;;8.60;7.07;;;;;;;;;;4993521;28;20073;-76
2022/09/03 06:18:56;;;;;;;10.95;7.32;;;;;;;;;;5002487;28;20113;-73
2022/09/03 06:21:22;;;;;;;9.48;6.30;;;;;;;;;;4993294;28;20049;-70
2022/09/03 06:23:55;;;;;;;10.43;7.50;;;;;;;;;;4992317;28;20101;-71
2022/09/03 06:26:21;;;;;;;;;;;;;;;;;;4991120;28;20137;-70
2022/09/03 06:28:48;;;;;;;15.70;8.02;;;;;;;;;;4992991;28;19924;-73
2022/09/03 06:31:16;;;;;;;10.85;7.35;;;;;;;;;;4975236;28;20026;-74
2022/09/03 06:33:43;;;;;;;9.13;7.68;;;;;;;;;;4993978;28;20026;-71
2022/09/03 06:36:14;;;;;;;12.52;7.80;;;;;;;;;;4994250;28;20034;-72
2022/09/03 06:38:41;;;;;;;9.60;7.97;;;;;;;;;;4993390;28;20061;-73
2022/09/03 06:41:12;;;;;;;8.95;7.55;;;;;;;;;;4992749;28;20037;-72
2022/09/03 06:43:40;;;;;;;9.55;7.55;;;;;;;;;;4991318;28;20026;-75
2022/09/03 06:46:10;;;;;;;14.75;7.60;;;;;;;;;;4992976;28;20165;-70
2022/09/03 06:48:37;;;;;;;13.68;9.27;;;;;;;;;;4990608;28;20037;-73
2022/09/03 06:51:08;;;;;;;13.32;8.60;;;;;;;;;;4993264;28;20026;-72
2022/09/03 06:53:37;;;;;;;12.23;8.35;;;;;;;;;;5000188;28;20136;-73
2022/09/03 06:56:05;;;;;;;10.30;8.43;;;;;;;;;;5012957;28;20475;-73
2022/09/03 06:58:42;;;;;;;12.68;8.25;;;;;;;;;;5012791;28;20442;-69
2022/09/03 07:01:19;;;;;;;12.02;8.15;;;;;;;;;;5010264;28;20143;-75
2022/09/03 07:03:50;;;;;;;12.27;8.45;;;;;;;;;;4978650;28;20487;-73
2022/09/03 07:06:18;;;;;;;11.30;8.48;;;;;;;;;;4992997;28;20074;-70
2022/09/03 07:08:45;;;;;;;10.77;8.55;;;;;;;;;;4974956;28;20503;-75
2022/09/03 07:11:13;;;;;;;14.07;9.65;;;;;;;;;;4988094;28;20030;-72
2022/09/03 07:13:42;;;;;;;14.20;9.43;;;;;;;;;;4993928;28;20053;-71
2022/09/03 07:16:12;;;;;;;13.10;8.50;;;;;;;;;;4989797;28;20478;-71
2022/09/03 07:18:38;;;;;;;13.02;8.38;;;;;;;;;;4992032;28;20366;-70
2022/09/03 07:21:10;;;;;;;10.88;9.15;;;;;;;;;;4991828;28;20019;-69
2022/09/03 07:23:37;;;;;;;12.82;8.43;;;;;;;;;;4991954;28;20034;-71
2022/09/03 07:26:06;;;;;;;12.23;8.68;;;;;;;;;;4993625;28;20066;-69
2022/09/03 07:28:35;;;;;;;12.57;7.97;;;;;;;;;;4974596;28;20027;-69
2022/09/03 07:31:04;;;;;;;12.00;7.75;;;;;;;;;;4992107;28;20045;-76
2022/09/03 07:33:31;;;;;;;13.93;9.18;;;;;;;;;;4990108;28;20065;-67
2022/09/03 07:36:13;;;;;;;13.27;8.55;;;;;;;;;;4992436;28;20023;-70
2022/09/03 07:38:40;;;;;;;14.40;8.52;;;;;;;;;;4990188;28;20050;-73
2022/09/03 07:41:07;;;;;;;14.85;8.35;;;;;;;;;;4992077;28;20025;-69
2022/09/03 07:43:56;;;;;;;10.43;7.82;;;;;;;;;;4974444;28;20053;-69
2022/09/03 07:46:24;;;;;;;11.20;7.47;;;;;;;;;;4964319;28;20043;-69
2022/09/03 07:48:51;;;;;;;12.70;9.23;;;;;;;;;;4952750;28;20475;-69
2022/09/03 07:51:19;;;;;;;12.32;8.57;;;;;;;;;;4952705;28;20043;-69
2022/09/03 07:53:46;;;;;;;12.25;7.97;;;;;;;;;;4950983;28;20031;-68
2022/09/03 07:56:12;;;;;;;13.35;7.95;;;;;;;;;;4944169;28;20411;-69
2022/09/03 07:58:42;;;;;;;10.80;7.38;;;;;;;;;;4943503;29;20497;-72
2022/09/03 08:01:10;;;;;;;12.55;8.20;;;;;;;;;;4944879;28;20557;-67
2022/09/03 08:03:37;;;;;;;10.32;7.15;;;;;;;;;;4947327;28;20023;-71
2022/09/03 08:06:05;;;;;;;11.38;7.15;;;;;;;;;;4956689;28;20493;-69
2022/09/03 08:08:34;;;;;;;9.35;8.00;;;;;;;;;;4973007;28;20033;-68
2022/09/03 08:11:18;;;;;;;8.48;6.18;;;;;;;;;;4972819;28;20525;-69
2022/09/03 08:13:47;;;;;;;11.27;7.50;;;;;;;;;;4970753;28;20039;-73
2022/09/03 08:16:15;;;;;;;8.73;5.90;;;;;;;;;;4971619;28;20126;-70
2022/09/03 08:18:41;;;;;;;12.85;8.05;;;;;;;;;;4964877;28;20034;-70
2022/09/03 08:21:10;;;;;;;10.63;6.63;;;;;;;;;;4952630;28;20027;-74
2022/09/03 08:23:41;;;;;;;13.27;6.25;;;;;;;;;;4954033;28;20035;-71
2022/09/03 08:26:07;;;;;;;11.70;6.65;;;;;;;;;;4954830;28;20066;-74
2022/09/03 08:28:35;;;;;;;8.57;5.57;;;;;;;;;;4955235;28;20086;-70
2022/09/03 08:31:10;;;;;;;11.25;6.40;;;;;;;;;;4956962;28;20054;-71
2022/09/03 08:33:41;;;;;;;9.98;5.85;;;;;;;;;;4954480;28;20046;-72
2022/09/03 08:36:22;;;;;;;10.38;5.57;;;;;;;;;;4935057;29;20043;-72
2022/09/03 08:38:53;;;;;;;8.80;5.72;;;;;;;;;;4956092;28;20032;-70
2022/09/03 08:41:29;;;;;;;8.65;5.43;;;;;;;;;;4956009;28;20059;-69
2022/09/03 08:44:16;;;;;;;9.82;5.93;;;;;;;;;;4955831;28;20028;-70
2022/09/03 08:47:20;;;;;;;10.07;5.43;;;;;;;;;;4956212;28;20482;-73
2022/09/03 08:50:09;;;;;;;10.95;5.63;;;;;;;;;;4945405;28;20046;-71
2022/09/03 08:52:37;;;;;;;7.00;5.10;;;;;;;;;;4955114;28;20043;-69
2022/09/03 08:55:18;;;;;;;6.25;4.72;;;;;;;;;;4949690;28;20079;-71
2022/09/03 08:57:49;;;;;;;10.77;5.88;;;;;;;;;;4951419;28;20486;-71
2022/09/03 09:00:17;;;;;;;8.85;5.88;;;;;;;;;;4955234;28;20043;-69
2022/09/03 09:02:59;;;;;;;6.68;5.03;;;;;;;;;;4956264;28;20020;-68
2022/09/03 09:05:29;;;;;;;8.48;5.25;;;;;;;;;;4956575;28;20058;-68
2022/09/03 09:08:07;;;;;;;10.80;5.45;;;;;;;;;;4937900;28;20066;-69
2022/09/03 09:10:46;;;;;;;7.45;5.32;;;;;;;;;;4954976;29;20094;-70
2022/09/03 09:13:21;;;;;;;9.15;4.93;;;;;;;;;;4954302;28;20040;-70
2022/09/03 09:15:52;;;;;;;9.13;5.40;;;;;;;;;;4955903;28;20046;-69
2022/09/03 09:18:40;;;;;;;8.02;5.35;;;;;;;;;;4938877;29;20041;-70
2022/09/03 09:21:21;;;;;;;7.72;5.82;;;;;;;;;;4944279;28;20118;-70
2022/09/03 09:23:48;;;;;;;9.27;5.57;;;;;;;;;;4935214;29;20075;-68
2022/09/03 09:26:17;;;;;;;8.95;5.78;;;;;;;;;;4936006;29;20383;-68
2022/09/03 09:28:45;;;;;;;7.75;5.30;;;;;;;;;;4951867;28;20495;-68
2022/09/03 09:31:15;;;;;;;7.88;5.07;;;;;;;;;;4935858;29;20432;-69
2022/09/03 09:33:41;;;;;;;7.35;5.07;;;;;;;;;;4937139;29;20036;-70
2022/09/03 09:36:10;;;;;;;11.70;5.20;;;;;;;;;;4919551;29;20394;-74
2022/09/03 09:38:38;;;;;;;12.10;5.90;;;;;;;;;;4936845;29;20028;-67
2022/09/03 09:41:15;;;;;;;9.63;5.32;;;;;;;;;;4937020;29;20036;-68
2022/09/03 09:43:42;;;;;;;7.50;4.40;;;;;;;;;;4936877;29;20048;-67
2022/09/03 09:46:12;;;;;;;7.07;4.85;;;;;;;;;;4936975;29;20386;-69
2022/09/03 09:48:52;;;;;;;8.95;4.82;;;;;;;;;;4936932;29;20035;-69
2022/09/03 09:51:24;;;;;;;8.90;4.70;;;;;;;;;;4936732;29;20119;-70
2022/09/03 09:54:18;;;;;;;8.43;4.80;;;;;;;;;;4936421;29;20036;-71
2022/09/03 09:56:46;;;;;;;6.63;4.05;;;;;;;;;;4936798;29;20039;-71
2022/09/03 09:59:14;;;;;;;7.60;4.95;;;;;;;;;;4936543;29;20024;-75
2022/09/03 10:01:43;;;;;;;6.07;4.38;;;;;;;;;;4936641;29;20070;-68
2022/09/03 10:04:22;;;;;;;8.10;4.65;;;;;;;;;;4936527;29;20059;-68
2022/09/03 10:07:00;;;;;;;8.00;5.03;;;;;;;;;;4936400;29;20045;-76
2022/09/03 10:09:31;;;;;;;6.20;4.13;;;;;;;;;;4936567;29;20039;-72
2022/09/03 10:12:18;;;;;;;7.03;3.95;;;;;;;;;;4936462;29;20082;-70
2022/09/03 10:15:06;;;;;;;5.57;3.80;;;;;;;;;;4954449;28;20098;-68
2022/09/03 10:17:44;;;;;;;6.65;3.35;;;;;;;;;;4955578;28;20042;-68
2022/09/03 10:20:41;;;;;;;7.15;3.78;;;;;;;;;;4955431;29;20128;-68
2022/09/03 10:23:30;;;;;;;6.95;3.88;;;;;;;;;;4955189;29;20162;-68
2022/09/03 10:26:20;;;;;;;6.53;3.60;;;;;;;;;;4955031;28;20462;-69
2022/09/03 10:28:50;;;;;;;6.50;3.83;;;;;;;;;;4955184;28;20118;-69
2022/09/03 10:31:35;;;;;;;4.90;3.53;;;;;;;;;;4955237;28;20139;-69
2022/09/03 10:34:13;;;;;;;4.95;3.38;;;;;;;;;;4969867;28;20031;-69
2022/09/03 10:36:50;;;;;;;5.53;3.95;;;;;;;;;;4955043;29;20402;-70
2022/09/03 10:39:16;;;;;;;6.75;3.95;;;;;;;;;;4955302;29;20039;-70
2022/09/03 10:42:12;;;;;;;8.10;3.30;;;;;;;;;;4954828;29;20102;-70
2022/09/03 10:45:02;;;;;;;5.95;3.15;;;;;;;;;;4954971;28;20035;-69
2022/09/03 10:47:48;;;;;;;9.40;3.15;;;;;;;;;;4955051;28;20031;-69
2022/09/03 10:50:22;;;;;;;4.40;3.20;;;;;;;;;;4954707;28;20073;-69
2022/09/03 10:53:06;;;;;;;6.13;3.20;;;;;;;;;;4954771;28;20043;-70
2022/09/03 10:55:44;;;;;;;4.47;3.28;;;;;;;;;;4955045;28;20034;-71
2022/09/03 10:58:39;;;;;;;4.97;3.10;;;;;;;;;;4954953;29;20035;-70
2022/09/03 11:01:14;;;;;;;4.25;3.10;;;;;;;;;;4955110;29;20441;-69
2022/09/03 11:04:04;;;;;;;4.78;2.78;;;;;;;;;;4954882;29;20035;-69
2022/09/03 11:06:41;;;;;;;5.50;3.25;;;;;;;;;;4954493;28;20043;-69
2022/09/03 11:09:16;;;;;;;4.40;3.13;;;;;;;;;;4954694;29;20068;-69
2022/09/03 11:11:52;;;;;;;4.50;3.08;;;;;;;;;;4937816;29;20517;-69
2022/09/03 11:14:32;;;;;;;3.35;2.90;;;;;;;;;;4954535;29;20360;-69
2022/09/03 11:17:04;;;;;;;6.57;3.45;;;;;;;;;;4954975;29;20086;-69
2022/09/03 11:19:40;;;;;;;4.90;2.75;;;;;;;;;;4954551;29;20032;-69
2022/09/03 11:22:07;;;;;;;7.10;3.03;;;;;;;;;;4954558;29;20043;-71
2022/09/03 11:24:38;;;;;;;4.05;3.15;;;;;;;;;;4954291;28;20050;-71
2022/09/03 11:27:25;;;;;;;7.78;3.45;;;;;;;;;;4954378;29;20114;-69
2022/09/03 11:30:07;;;;;;;5.30;2.60;;;;;;;;;;4954824;29;20486;-69
2022/09/03 11:32:52;;;;;;;6.45;2.90;;;;;;;;;;4954719;28;20482;-70
2022/09/03 11:35:28;;;;;;;3.42;2.50;;;;;;;;;;4954533;28;20043;-70
2022/09/03 11:38:00;;;;;;;5.32;2.40;;;;;;;;;;4954107;28;20536;-71
2022/09/03 11:40:58;;;;;;;3.45;2.67;;;;;;;;;;4954806;28;20390;-71
2022/09/03 11:43:27;;;;;;;7.15;2.80;;;;;;;;;;4954873;28;20047;-76
2022/09/03 11:46:11;;;;;;;5.38;3.80;;;;;;;;;;4954685;28;20085;-76
2022/09/03 11:48:45;;;;;;;7.68;2.92;;;;;;;;;;4954457;28;20450;-72
2022/09/03 11:51:29;;;;;;;5.22;2.67;;;;;;;;;;4954392;28;20059;-74
2022/09/03 11:53:56;;;;;;;4.50;3.13;;;;;;;;;;4954455;28;20067;-69
2022/09/03 11:56:23;;;;;;;5.15;2.60;;;;;;;;;;4950343;28;20047;-70
2022/09/03 11:59:22;;;;;;;4.72;2.13;;;;;;;;;;4926342;28;20047;-67
2022/09/03 12:01:54;;;;;;;3.40;2.70;;;;;;;;;;4932403;28;20134;-69
2022/09/03 12:04:30;;;;;;;6.05;2.80;;;;;;;;;;4954385;28;20067;-67
2022/09/03 12:07:22;;;;;;;5.10;3.00;;;;;;;;;;4956782;28;20043;-68
2022/09/03 12:09:50;;;;;;;5.32;2.50;;;;;;;;;;4954887;28;20035;-72
2022/09/03 12:12:47;;;;;;;4.20;2.90;;;;;;;;;;4953365;28;20074;-70
2022/09/03 12:16:01;;;;;;;3.80;2.20;;;;;;;;;;4957752;28;20048;-69
2022/09/03 12:18:33;;;;;;;4.55;2.42;;;;;;;;;;4904989;28;20476;-68
2022/09/03 12:21:02;;;;;;;6.93;2.40;;;;;;;;;;4957263;28;20035;-70
2022/09/03 12:23:30;;;;;;;2.70;2.00;;;;;;;;;;4956953;28;20069;-68
2022/09/03 12:26:02;;;;;;;4.35;2.08;;;;;;;;;;4957209;28;20043;-69
2022/09/03 12:28:29;;;;;;;4.18;2.35;;;;;;;;;;4942852;28;20043;-69
2022/09/03 12:31:07;;;;;;;4.65;1.80;;;;;;;;;;4943215;28;20035;-71
2022/09/03 12:33:33;;;;;;;3.42;2.10;;;;;;;;;;4950239;28;20043;-71
2022/09/03 12:36:00;;;;;;;3.35;1.95;;;;;;;;;;4957784;28;20029;-70
2022/09/03 12:38:28;;;;;;;4.07;2.05;;;;;;;;;;4942677;28;20053;-71
2022/09/03 12:40:54;;;;;;;6.47;2.22;;;;;;;;;;4962840;28;20023;-70
2022/09/03 12:43:27;;;;;;;4.45;2.13;;;;;;;;;;4953938;28;20035;-70
2022/09/03 12:45:53;;;;;;;3.63;2.20;;;;;;;;;;4955155;28;20430;-70
2022/09/03 12:48:20;;;;;;;2.85;2.00;;;;;;;;;;4954411;28;20019;-75
2022/09/03 12:58:18;;;;;;;7.57;5.07;;;;;;;;;;4935173;29;20058;-74
2022/09/03 13:01:09;;;;;;;3.85;3.00;;;;;;;;;;4945310;28;20027;-70
2022/09/03 13:03:57;;;;;;;2.40;1.80;;;;;;;;;;4951733;28;20043;-69
2022/09/03 13:06:39;;;;;;;4.13;2.53;;;;;;;;;;4956365;28;20077;-68
2022/09/03 13:09:08;;;;;;;3.72;2.28;;;;;;;;;;4956053;28;20038;-73
2022/09/03 13:11:37;;;;;;;2.80;2.10;;;;;;;;;;4954565;28;20554;-66
2022/09/03 13:14:07;;;;;;;4.55;2.50;;;;;;;;;;4956136;28;20039;-70
2022/09/03 13:16:41;;;;;;;2.95;2.00;;;;;;;;;;4956318;28;20046;-69
2022/09/03 13:19:58;;;;;;;6.25;2.30;;;;;;;;;;4935221;29;20534;-72
2022/09/03 13:22:39;;;;;;;5.18;1.95;;;;;;;;;;4943395;28;20521;-71
2022/09/03 13:25:07;;;;;;;4.88;2.00;;;;;;;;;;4951319;28;20031;-70
2022/09/03 13:27:43;;;;;;;4.97;1.80;;;;;;;;;;4956217;28;20019;-77
2022/09/03 13:30:18;;;;;;;2.60;1.90;;;;;;;;;;4951992;28;20031;-69
2022/09/03 13:33:29;;;;;;;2.70;1.83;;;;;;;;;;4948937;28;20051;-71
2022/09/03 13:36:04;;;;;;;3.28;1.85;;;;;;;;;;4932612;28;20047;-70
2022/09/03 13:39:08;;;;;;;3.15;2.00;;;;;;;;;;4944266;28;20024;-70
2022/09/03 13:41:42;;;;;;;3.80;2.05;;;;;;;;;;4965945;28;20040;-68
2022/09/03 13:44:51;;;;;;;3.47;1.92;;;;;;;;;;4953854;28;20041;-70
2022/09/03 13:50:20;;;;;;;3.67;1.90;;;;;;;;;;4840806;29;20208;-68
2022/09/03 13:50:49;;;;;;;2.83;1.85;;;;;;;;;;4936001;29;20031;-67
2022/09/03 13:53:24;;;;;;;2.63;1.80;;;;;;;;;;4936018;29;20110;-67
2022/09/03 13:56:05;;;;;;;2.53;1.85;;;;;;;;;;4936369;29;20035;-68
2022/09/03 13:58:54;;;;;;;4.32;1.77;;;;;;;;;;4936357;29;20035;-66
2022/09/03 14:01:57;;;;;;;4.45;2.00;;;;;;;;;;4935949;29;20039;-67
2022/09/03 14:04:58;;;;;;;4.53;2.00;;;;;;;;;;4919259;29;20142;-66
2022/09/03 14:07:37;;;;;;;2.22;1.50;;;;;;;;;;4912277;29;20055;-67
2022/09/03 14:10:10;;;;;;;4.13;2.00;;;;;;;;;;4934760;29;20040;-66
2022/09/03 14:12:54;;;;;;;2.78;2.00;;;;;;;;;;4936006;29;20042;-67
2022/09/03 14:15:28;;;;;;;3.30;1.70;;;;;;;;;;4934214;29;20071;-67
2022/09/03 14:18:28;;;;;;;2.83;1.65;;;;;;;;;;4934510;29;20439;-68
2022/09/03 14:21:00;;;;;;;2.95;1.58;;;;;;;;;;4935503;29;20451;-67
2022/09/03 14:23:39;;;;;;;3.97;1.95;;;;;;;;;;4933516;29;20047;-66
2022/09/03 14:26:13;;;;;;;3.03;1.65;;;;;;;;;;4935162;29;20629;-68
2022/09/03 14:28:48;;;;;;;4.03;1.88;;;;;;;;;;4935581;29;20127;-67
2022/09/03 14:31:41;;;;;;;2.55;1.67;;;;;;;;;;4937319;28;20043;-65
2022/09/03 14:34:13;;;;;;;;;;;;;;;;;;4954880;29;20035;-66
2022/09/03 14:36:57;;;;;;;4.43;2.00;;;;;;;;;;4954749;28;20293;-67
2022/09/03 14:39:45;;;;;;;3.13;1.67;;;;;;;;;;4953921;28;20058;-66
2022/09/03 14:42:27;;;;;;;3.00;1.77;;;;;;;;;;4942001;28;20031;-66
2022/09/03 14:45:29;;;;;;;3.08;1.67;;;;;;;;;;4953246;29;20062;-65
2022/09/03 14:48:28;;;;;;;3.67;2.73;;;;;;;;;;4953539;28;20122;-67
2022/09/03 14:51:06;;;;;;;4.10;2.78;;;;;;;;;;4953196;28;20312;-65
2022/09/03 14:54:08;;;;;;;3.33;2.58;;;;;;;;;;4953095;28;20023;-65
2022/09/03 14:56:52;;;;;;;5.90;3.20;;;;;;;;;;4951071;28;20114;-65
2022/09/03 14:59:29;;;;;;;5.65;2.50;;;;;;;;;;4951374;28;20479;-65
2022/09/03 15:02:36;;;;;;;4.18;2.60;;;;;;;;;;4950651;28;20482;-65
2022/09/03 15:05:16;;;;;;;6.15;3.00;;;;;;;;;;4953033;28;20418;-65
2022/09/03 15:07:53;;;;;;;5.35;2.70;;;;;;;;;;4951404;28;20043;-67
2022/09/03 15:10:42;;;;;;;5.78;3.38;;;;;;;;;;4966141;28;20097;-65
2022/09/03 15:13:16;;;;;;;5.68;3.03;;;;;;;;;;4971737;28;20047;-67
2022/09/03 15:15:42;;;;;;;4.90;2.70;;;;;;;;;;4972835;28;20031;-64
2022/09/03 15:18:28;;;;;;;5.20;2.97;;;;;;;;;;4973412;28;20417;-65
2022/09/03 15:21:14;;;;;;;5.13;3.13;;;;;;;;;;4972801;28;20604;-67
2022/09/03 15:23:54;;;;;;;4.35;3.00;;;;;;;;;;4957294;28;20031;-67
2022/09/03 15:26:33;;;;;;;6.50;3.30;;;;;;;;;;4947243;29;20035;-64
2022/09/03 15:28:59;;;;;;;5.13;2.95;;;;;;;;;;4935945;29;20038;-66
2022/09/03 15:31:24;;;;;;;4.97;2.83;;;;;;;;;;4943193;28;20249;-66